Time;durP1;ratioP1;P1;durP2;ratioP2;P2;SDS_P1;SDS_P2;PMS_P1;PMS_P2;Temp;Humidity;BMP_temperature;BMP_pressure;BME280_temperature;BME280_humidity;BME280_pressure;Samples;Min_cycle;Max_cycle;Signal;HPM_P1;HPM_P2
2022/05/10 00:01:47;;;;;;;0.20;0.20;;;14.00;99.90;;;12.61;90.22;100777.91;10338276;28;98527;-79
2022/05/10 00:06:51;;;;;;;0.67;0.40;;;14.00;99.90;;;12.67;90.27;100779.91;10372889;28;96601;-78
2022/05/10 00:11:58;;;;;;;0.30;0.30;;;14.00;99.90;;;12.71;90.23;100782.03;10328082;28;97121;-78
2022/05/10 00:17:01;;;;;;;0.77;0.30;;;14.10;99.90;;;12.72;90.27;100780.25;10326858;28;96568;-78
2022/05/10 00:22:04;;;;;;;0.33;0.30;;;14.20;99.90;;;12.74;90.21;100775.56;10331329;28;96574;-78
2022/05/10 00:27:07;;;;;;;0.30;0.30;;;14.20;99.90;;;12.77;90.28;100775.22;10354111;28;96595;-78
2022/05/10 00:32:10;;;;;;;0.10;0.10;;;14.10;99.90;;;12.79;90.44;100767.91;10336871;28;96638;-78
2022/05/10 00:37:16;;;;;;;0.80;0.50;;;14.20;99.90;;;12.85;90.38;100767.22;10332141;28;97201;-78
2022/05/10 00:42:36;;;;;;;0.53;0.50;;;14.20;99.90;;;12.88;90.35;100761.53;10349489;28;96512;-78
2022/05/10 00:47:51;;;;;;;1.60;1.10;;;14.30;99.90;;;12.91;90.48;100753.22;10343897;28;96544;-78
2022/05/10 00:53:13;;;;;;;0.33;0.20;;;14.30;99.90;;;12.96;90.64;100752.72;10370661;28;96495;-78
2022/05/10 00:58:30;;;;;;;1.10;0.60;;;14.40;99.90;;;13.02;90.55;100757.38;10340143;28;96766;-78
2022/05/10 01:03:41;;;;;;;0.30;0.13;;;14.40;99.90;;;13.05;90.35;100752.50;10338611;28;98598;-78
2022/05/10 01:08:50;;;;;;;0.77;0.40;;;14.40;99.90;;;13.08;90.25;100752.19;10305452;28;96896;-78
2022/05/10 01:14:01;;;;;;;0.40;0.40;;;14.50;99.90;;;13.08;89.90;100744.16;10335731;28;97410;-79
2022/05/10 01:19:04;;;;;;;0.40;0.20;;;14.50;99.90;;;13.10;89.95;100744.00;10336598;28;96653;-78
2022/05/10 01:24:41;;;;;;;0.20;0.20;;;14.60;99.90;;;13.09;90.16;100742.34;10363061;28;97505;-78
2022/05/10 01:29:51;;;;;;;0.50;0.50;;;14.60;99.90;;;13.09;89.81;100740.50;10313187;28;97236;-78
2022/05/10 01:34:58;;;;;;;1.17;0.37;;;14.60;99.90;;;13.08;89.83;100735.34;10338343;28;97959;-78
2022/05/10 01:40:41;;;;;;;0.27;0.27;;;14.60;99.90;;;13.03;89.78;100732.34;10325832;28;96557;-78
2022/05/10 01:45:51;;;;;;;0.20;0.20;;;14.50;99.90;;;13.03;89.87;100733.19;10344924;28;97309;-78
2022/05/10 01:51:21;;;;;;;0.93;0.57;;;14.40;99.90;;;13.01;89.76;100726.31;10328711;28;96484;-78
2022/05/10 01:56:28;;;;;;;1.33;0.67;;;14.50;99.90;;;13.00;89.83;100716.66;10315011;28;96720;-78
2022/05/10 02:01:42;;;;;;;0.30;0.30;;;14.40;99.90;;;12.98;89.76;100719.50;10326583;28;97378;-78
2022/05/10 02:07:13;;;;;;;0.20;0.20;;;14.40;99.90;;;12.94;89.99;100723.50;10325142;28;96677;-79
2022/05/10 02:12:52;;;;;;;0.60;0.32;;;14.40;99.90;;;12.90;89.99;100719.53;10354280;28;96640;-78
2022/05/10 02:18:35;;;;;;;0.20;0.20;;;14.30;99.90;;;12.88;90.13;100710.03;10344900;28;97017;-79
2022/05/10 02:24:10;;;;;;;0.53;0.40;;;14.30;99.90;;;12.86;90.44;100710.19;10353507;28;98170;-78
2022/05/10 02:29:26;;;;;;;0.73;0.50;;;14.30;99.90;;;12.84;90.32;100704.22;10297671;28;97340;-78
2022/05/10 02:34:35;;;;;;;1.60;0.50;;;14.30;99.90;;;12.79;90.52;100711.91;10364865;28;98720;-78
2022/05/10 02:39:38;;;;;;;0.63;0.30;;;14.30;99.90;;;12.78;90.32;100705.72;10331465;28;97896;-78
2022/05/10 02:44:42;;;;;;;0.63;0.37;;;14.20;99.90;;;12.71;89.81;100702.03;10349975;28;96555;-78
2022/05/10 02:49:44;;;;;;;0.10;0.10;;;14.20;99.90;;;12.64;89.71;100706.41;10307321;28;96993;-77
2022/05/10 02:55:02;;;;;;;1.63;0.87;;;14.10;99.90;;;12.53;89.54;100701.41;10333747;28;96862;-78
2022/05/10 03:00:06;;;;;;;0.40;0.30;;;14.10;99.90;;;12.43;89.30;100709.59;10305037;28;96736;-77
2022/05/10 03:05:13;;;;;;;0.87;0.70;;;14.00;99.90;;;12.31;89.19;100700.28;10312259;28;96641;-79
2022/05/10 03:10:16;;;;;;;1.20;0.37;;;13.80;99.90;;;12.18;88.91;100697.28;10342358;28;97616;-78
2022/05/10 03:15:19;;;;;;;0.60;0.40;;;13.70;99.90;;;12.03;88.83;100699.75;10356383;28;97564;-78
2022/05/10 03:20:22;;;;;;;1.13;0.63;;;13.60;99.90;;;11.98;89.25;100688.75;10343481;28;96860;-79
2022/05/10 03:25:28;;;;;;;1.03;0.43;;;13.50;99.90;;;11.88;88.66;100699.59;10369797;28;96635;-78
2022/05/10 03:30:32;;;;;;;0.37;0.27;;;13.40;99.90;;;11.80;88.63;100697.69;10304839;28;97906;-78
2022/05/10 03:35:35;;;;;;;0.37;0.30;;;13.30;99.90;;;11.80;88.86;100704.84;10348559;28;96745;-77
2022/05/10 03:40:38;;;;;;;0.63;0.40;;;13.30;99.90;;;11.82;89.17;100710.88;10329259;28;96475;-78
2022/05/10 03:45:41;;;;;;;0.10;0.10;;;13.30;99.90;;;11.85;89.09;100710.53;10356227;28;98341;-78
2022/05/10 03:50:44;;;;;;;0.50;0.33;;;13.40;99.90;;;11.83;88.81;100699.25;10333162;28;96676;-78
2022/05/10 03:55:47;;;;;;;2.10;0.40;;;13.40;99.90;;;11.86;89.07;100706.06;10351837;28;96493;-77
2022/05/10 04:00:50;;;;;;;1.03;0.93;;;13.40;99.90;;;11.87;89.07;100707.72;10324427;28;96530;-77
2022/05/10 04:05:54;;;;;;;0.40;0.33;;;13.40;99.90;;;11.94;89.34;100706.91;10354478;28;97137;-78
2022/05/10 04:11:06;;;;;;;0.57;0.50;;;13.40;99.90;;;12.00;89.55;100698.25;10348465;28;96753;-77
2022/05/10 04:16:12;;;;;;;0.70;0.37;;;13.50;99.90;;;12.11;89.68;100705.06;10314735;28;97087;-78
2022/05/10 04:21:15;;;;;;;0.30;0.30;;;13.60;99.90;;;12.24;89.55;100709.94;10345356;28;96653;-77
2022/05/10 04:26:19;;;;;;;0.60;0.33;;;13.60;99.90;;;12.40;89.75;100703.75;10328037;28;97024;-78
2022/05/10 04:31:21;;;;;;;1.27;0.80;;;13.80;99.90;;;12.56;89.52;100719.75;10323089;28;97366;-77
2022/05/10 04:36:25;;;;;;;0.20;0.20;;;13.90;99.90;;;12.72;89.39;100717.06;10315716;28;98500;-77
2022/05/10 04:41:35;;;;;;;0.33;0.23;;;14.10;99.90;;;12.86;88.82;100723.53;10318464;28;96756;-76
2022/05/10 04:46:41;;;;;;;0.17;0.17;;;14.20;99.90;;;12.99;88.08;100731.00;10311141;28;96877;-77
2022/05/10 04:51:44;;;;;;;0.57;0.33;;;14.40;99.90;;;13.09;87.68;100732.50;10335173;28;96591;-78
2022/05/10 04:56:47;;;;;;;0.73;0.40;;;14.50;99.90;;;13.20;87.23;100733.97;10305889;28;96734;-78
2022/05/10 05:01:50;;;;;;;0.67;0.60;;;14.50;99.90;;;13.27;86.40;100734.97;10293109;28;99152;-78
2022/05/10 05:06:53;;;;;;;3.03;0.60;;;14.60;99.90;;;13.33;86.22;100738.78;10328570;28;97598;-78
2022/05/10 05:11:56;;;;;;;0.83;0.60;;;14.70;99.90;;;13.38;85.54;100733.78;10300853;28;98905;-77
2022/05/10 05:17:00;;;;;;;0.37;0.37;;;14.70;99.90;;;13.46;85.47;100741.72;10316171;28;96960;-78
2022/05/10 05:22:03;;;;;;;0.37;0.27;;;14.80;99.90;;;13.64;85.76;100744.16;10319092;28;97345;-78
2022/05/10 05:27:06;;;;;;;0.60;0.50;;;15.00;99.90;;;13.79;85.14;100741.56;10297517;28;96725;-77
2022/05/10 05:32:11;;;;;;;0.68;0.40;;;15.10;99.90;;;14.11;85.91;100738.69;10320998;28;96621;-78
2022/05/10 05:42:35;;;;;;;;;;;15.50;99.90;;;14.92;82.36;100739.88;10366926;28;96619;-78
2022/05/10 05:47:40;;;;;;;0.60;0.40;;;15.80;99.90;;;15.07;81.49;100753.28;10337583;28;97901;-78
2022/05/10 05:52:45;;;;;;;0.40;0.25;;;16.00;99.90;;;15.19;80.39;100742.94;10359393;28;97471;-78
2022/05/10 05:57:48;;;;;;;0.50;0.40;;;16.30;99.90;;;15.35;78.80;100750.75;10321699;28;97039;-78
2022/05/10 06:02:52;;;;;;;6.50;0.68;;;16.50;99.90;;;15.52;78.10;100738.00;10324916;28;96651;-77
2022/05/10 06:07:55;;;;;;;1.05;0.63;;;16.70;99.90;;;15.73;77.17;100739.97;10350753;28;97059;-78
2022/05/10 06:13:01;;;;;;;1.98;1.10;;;17.00;99.90;;;15.95;76.50;100744.34;10321061;28;97757;-78
2022/05/10 06:18:05;;;;;;;1.45;0.55;;;17.20;99.90;;;16.17;73.11;100744.34;10331154;28;96544;-78
2022/05/10 06:23:09;;;;;;;0.60;0.45;;;17.40;99.90;;;16.36;72.96;100740.19;10319930;28;96835;-77
2022/05/10 06:28:11;;;;;;;2.05;0.98;;;17.60;99.90;;;16.54;72.01;100745.91;10333235;28;97523;-77
2022/05/10 06:33:16;;;;;;;1.40;0.60;;;17.80;99.90;;;16.77;70.78;100732.31;10291921;28;96494;-77
2022/05/10 06:38:24;;;;;;;0.77;0.75;;;18.00;99.90;;;17.00;70.66;100735.56;10356255;28;98859;-77
2022/05/10 06:43:28;;;;;;;1.15;0.63;;;18.30;99.90;;;17.14;68.71;100731.09;10336034;28;96487;-77
2022/05/10 06:48:31;;;;;;;0.85;0.43;;;18.40;99.90;;;17.28;67.17;100730.16;10314417;28;96517;-77
2022/05/10 06:53:36;;;;;;;0.60;0.40;;;18.60;99.90;;;17.43;67.06;100727.34;10330246;28;96736;-77
2022/05/10 06:58:39;;;;;;;0.63;0.50;;;18.80;99.90;;;17.56;65.47;100731.94;10310357;28;99114;-77
2022/05/10 07:03:48;;;;;;;1.05;0.50;;;18.80;99.90;;;17.76;64.76;100727.50;10310279;28;96658;-77
2022/05/10 07:08:51;;;;;;;0.53;0.43;;;19.00;99.90;;;17.94;61.41;100728.81;10334062;28;96526;-77
2022/05/10 07:13:55;;;;;;;0.43;0.32;;;19.20;99.90;;;18.08;59.58;100725.09;10332489;28;96551;-76
2022/05/10 07:18:58;;;;;;;0.55;0.45;;;19.40;97.10;;;18.18;56.69;100726.38;10333631;28;97831;-78
2022/05/10 07:24:01;;;;;;;0.65;0.50;;;19.50;96.60;;;18.33;55.82;100728.03;10334335;28;96390;-78
2022/05/10 07:29:04;;;;;;;0.88;0.52;;;19.60;95.10;;;18.53;56.31;100722.63;10318666;28;96745;-78
2022/05/10 07:34:08;;;;;;;0.30;0.30;;;19.80;94.70;;;18.67;56.18;100735.09;10342038;28;97579;-77
2022/05/10 07:39:16;;;;;;;1.23;0.40;;;20.00;93.80;;;18.85;56.07;100726.41;10332088;28;96510;-77
2022/05/10 07:44:19;;;;;;;0.75;0.57;;;20.10;93.00;;;18.99;54.16;100720.75;10302714;28;96664;-77
2022/05/10 07:49:22;;;;;;;0.35;0.35;;;20.30;92.30;;;19.13;53.17;100724.28;10330874;28;96678;-77
2022/05/10 07:54:25;;;;;;;1.00;0.55;;;20.50;91.10;;;19.31;52.49;100712.81;10320673;28;96507;-78
2022/05/10 07:59:29;;;;;;;0.57;0.47;;;20.60;90.20;;;19.45;51.22;100710.91;10330876;28;96592;-77
2022/05/10 08:04:37;;;;;;;0.55;0.30;;;20.80;88.30;;;19.63;51.15;100708.38;10315461;28;96661;-77
2022/05/10 08:09:40;;;;;;;0.73;0.47;;;21.00;85.60;;;19.90;49.67;100703.63;10291159;28;96542;-77
2022/05/10 08:14:43;;;;;;;1.17;0.63;;;21.20;79.50;;;20.19;49.81;100695.97;10292406;28;96511;-76
2022/05/10 08:19:46;;;;;;;0.43;0.32;;;21.50;79.90;;;20.34;47.46;100687.59;10297757;28;96727;-77
2022/05/10 08:24:49;;;;;;;0.77;0.63;;;21.60;68.50;;;20.40;47.02;100682.13;10307950;28;96490;-76
2022/05/10 08:29:52;;;;;;;0.82;0.30;;;21.70;72.60;;;20.62;47.26;100695.25;10319739;28;98106;-76
2022/05/10 08:34:55;;;;;;;1.42;0.50;;;21.80;74.90;;;20.82;45.45;100685.91;10344960;28;96616;-78
2022/05/10 08:40:00;;;;;;;1.02;0.38;;;22.00;72.10;;;20.96;45.89;100675.78;10330497;28;96434;-77
2022/05/10 08:45:09;;;;;;;0.40;0.40;;;22.20;69.40;;;21.14;44.99;100671.44;10331713;28;96411;-77
2022/05/10 08:50:14;;;;;;;0.73;0.43;;;22.40;70.00;;;21.32;45.21;100674.16;10313353;28;96653;-77
2022/05/10 08:55:59;;;;;;;0.38;0.32;;;22.50;69.00;;;21.50;45.44;100665.19;10317163;28;96691;-77
2022/05/10 09:01:09;;;;;;;0.30;0.30;;;22.70;67.80;;;21.70;44.56;100663.03;10319242;28;96496;-77
2022/05/10 09:06:41;;;;;;;0.38;0.22;;;22.90;64.50;;;21.79;43.26;100663.56;10321859;28;98523;-77
2022/05/10 09:12:01;;;;;;;0.77;0.40;;;23.00;64.20;;;21.88;43.26;100662.97;10316917;28;96603;-77
2022/05/10 09:17:04;;;;;;;0.50;0.30;;;23.20;66.10;;;22.16;43.00;100653.44;10329597;28;96637;-77
2022/05/10 09:22:47;;;;;;;0.50;0.20;;;23.40;65.00;;;22.44;42.47;100655.47;10294537;28;96576;-76
2022/05/10 09:27:53;;;;;;;0.57;0.50;;;23.70;64.20;;;22.53;41.42;100645.91;10327634;28;96611;-76
2022/05/10 09:38:47;;;;;;;0.60;0.52;;;23.90;59.70;;;23.00;39.61;100645.91;10338762;28;97796;-77
2022/05/10 09:43:50;;;;;;;4.32;1.15;;;24.20;60.50;;;23.10;38.89;100642.59;10337204;28;96691;-77
2022/05/10 09:48:53;;;;;;;0.52;0.40;;;24.30;58.70;;;23.12;38.92;100635.84;10338745;28;97238;-77
2022/05/10 09:53:57;;;;;;;0.52;0.22;;;24.30;56.90;;;23.39;39.52;100627.16;10328246;28;96768;-77
2022/05/10 09:59:25;;;;;;;0.73;0.47;;;24.50;58.40;;;23.66;38.86;100619.28;10310848;28;96445;-77
2022/05/10 10:04:44;;;;;;;0.55;0.30;;;24.80;56.80;;;23.36;38.05;100616.81;10334634;28;97108;-77
2022/05/10 10:09:52;;;;;;;2.15;0.30;;;24.70;56.40;;;23.11;39.69;100620.66;10335697;28;96805;-76
2022/05/10 10:15:36;;;;;;;0.50;0.25;;;24.50;57.00;;;22.82;39.27;100618.94;10335662;28;96558;-77
2022/05/10 10:20:57;;;;;;;1.40;0.40;;;24.30;57.40;;;22.47;41.07;100617.06;10336346;28;97269;-75
2022/05/10 10:26:16;;;;;;;0.40;0.20;;;23.90;57.80;;;22.33;42.43;100615.69;10319715;28;96454;-76
2022/05/10 10:31:36;;;;;;;1.10;0.60;;;23.80;59.20;;;21.97;43.61;100622.91;10331861;28;96545;-76
2022/05/10 10:36:59;;;;;;;0.30;0.30;;;23.50;60.10;;;21.86;45.83;100615.56;10353219;28;96677;-77
2022/05/10 10:42:23;;;;;;;0.30;0.30;;;23.30;62.30;;;21.71;43.67;100607.91;10333428;28;96548;-77
2022/05/10 10:47:45;;;;;;;1.02;0.93;;;23.20;60.90;;;21.72;45.18;100603.31;10335200;28;96627;-76
2022/05/10 10:52:49;;;;;;;1.08;0.30;;;23.10;62.30;;;22.18;43.04;100597.16;10297705;28;97453;-77
2022/05/10 10:58:35;;;;;;;0.40;0.30;;;23.40;61.10;;;22.71;42.25;100582.66;10294697;28;96383;-77
2022/05/10 11:04:12;;;;;;;0.30;0.30;;;23.90;61.00;;;23.08;41.55;100575.06;10334009;28;98241;-77
2022/05/10 11:09:44;;;;;;;1.10;0.80;;;24.30;59.80;;;23.44;41.56;100564.88;10333190;28;96818;-77
2022/05/10 11:15:17;;;;;;;0.50;0.40;;;24.60;59.50;;;23.73;40.13;100550.22;10335354;28;96460;-77
2022/05/10 11:20:55;;;;;;;0.60;0.57;;;24.90;56.50;;;23.53;37.58;100554.47;10333060;28;96663;-77
2022/05/10 11:26:45;;;;;;;0.73;0.60;;;24.80;53.70;;;23.60;37.63;100544.28;10333551;28;96831;-77
2022/05/10 11:32:29;;;;;;;1.80;0.43;;;24.80;55.60;;;23.60;36.97;100531.53;10293648;28;97354;-77
2022/05/10 11:38:11;;;;;;;0.50;0.45;;;24.80;55.30;;;23.89;37.30;100513.31;10308898;28;96841;-76
2022/05/10 11:43:32;;;;;;;0.40;0.40;;;25.10;54.90;;;24.28;36.38;100505.19;10331715;28;97880;-77
2022/05/10 11:48:56;;;;;;;0.80;0.60;;;25.40;52.90;;;24.59;34.38;100502.88;10319208;28;98293;-76
2022/05/10 11:54:51;;;;;;;1.38;0.60;;;25.70;52.60;;;24.88;33.29;100489.91;10334158;28;96447;-77
2022/05/10 12:00:26;;;;;;;0.60;0.40;;;25.90;48.40;;;24.82;33.36;100486.31;10309510;28;96623;-77
2022/05/10 12:05:34;;;;;;;0.40;0.30;;;25.90;49.60;;;24.92;33.37;100477.47;10330861;28;96459;-77
2022/05/10 12:10:44;;;;;;;0.82;0.43;;;25.90;48.60;;;25.12;33.94;100469.53;10331237;28;96434;-77
2022/05/10 12:21:23;;;;;;;0.98;0.30;;;25.90;48.70;;;24.62;32.66;100464.34;10331333;28;98125;-77
2022/05/10 12:26:46;;;;;;;0.20;0.20;;;25.70;47.80;;;24.32;33.76;100456.63;10330113;28;96778;-76
2022/05/10 12:32:01;;;;;;;0.77;0.38;;;25.40;49.80;;;24.10;33.59;100457.41;10332183;28;96476;-77
2022/05/10 12:37:24;;;;;;;0.50;0.50;;;25.20;49.30;;;23.80;34.57;100446.94;10303053;28;96498;-77
2022/05/10 12:43:00;;;;;;;0.75;0.68;;;25.00;49.90;;;23.74;35.82;100434.38;10321559;28;96463;-77
2022/05/10 12:48:40;;;;;;;0.68;0.35;;;24.80;51.40;;;24.01;36.31;100437.22;10293120;28;97065;-77
2022/05/10 12:54:14;;;;;;;0.75;0.28;;;25.00;51.80;;;24.43;35.84;100417.69;10329549;28;97831;-75
2022/05/10 12:59:30;;;;;;;0.20;0.20;;;25.40;51.20;;;25.14;34.47;100404.03;10296987;28;96524;-78
2022/05/10 13:04:40;;;;;;;0.80;0.70;;;26.20;50.90;;;25.80;33.26;100399.09;10329182;28;98013;-78
2022/05/10 13:10:14;;;;;;;0.45;0.43;;;27.20;48.60;;;25.83;32.35;100398.53;10304446;28;96471;-77
2022/05/10 13:15:21;;;;;;;0.68;0.40;;;27.50;46.50;;;25.32;32.59;100390.03;10298814;28;96581;-77
2022/05/10 13:20:29;;;;;;;0.20;0.20;;;26.90;47.40;;;25.25;34.67;100381.25;10320834;28;96643;-77
2022/05/10 13:25:39;;;;;;;0.32;0.20;;;26.80;50.00;;;25.53;32.69;100380.91;10289557;28;96563;-77
2022/05/10 13:30:57;;;;;;;2.22;0.30;;;27.30;47.70;;;25.31;32.99;100372.09;10298641;28;97321;-78
2022/05/10 13:36:10;;;;;;;0.43;0.35;;;27.00;47.50;;;25.35;33.30;100360.41;10333145;28;96719;-78
2022/05/10 13:41:30;;;;;;;0.57;0.38;;;26.80;47.80;;;25.76;32.20;100359.84;10327155;28;97429;-78
2022/05/10 13:47:02;;;;;;;1.23;0.40;;;27.00;48.50;;;25.98;32.54;100341.47;10317789;28;98255;-77
2022/05/10 13:52:08;;;;;;;1.05;0.43;;;27.30;48.30;;;26.51;32.95;100336.75;10301942;28;98749;-78
2022/05/10 13:57:35;;;;;;;0.77;0.55;;;27.70;49.10;;;26.69;31.08;100332.69;10320928;28;98066;-78
2022/05/10 14:02:38;;;;;;;0.75;0.30;;;28.00;47.60;;;26.81;30.23;100324.22;10326657;28;98008;-78
2022/05/10 14:07:44;;;;;;;0.90;0.40;;;27.90;45.50;;;26.58;29.37;100317.41;10325847;28;98179;-78
2022/05/10 14:13:02;;;;;;;1.67;0.52;;;27.70;44.30;;;26.57;30.70;100321.19;10326622;28;96678;-78
2022/05/10 14:18:44;;;;;;;0.88;0.50;;;27.60;45.20;;;27.11;29.41;100309.78;10328692;28;96588;-77
2022/05/10 14:23:47;;;;;;;0.70;0.50;;;27.90;46.50;;;27.24;28.57;100308.41;10332766;28;96652;-77
2022/05/10 14:28:54;;;;;;;0.32;0.20;;;28.10;44.10;;;27.48;27.94;100299.34;10378018;28;96527;-78
2022/05/10 14:33:57;;;;;;;0.93;0.32;;;28.30;44.70;;;27.41;27.74;100292.56;10364470;28;96680;-77
2022/05/10 14:39:00;;;;;;;0.32;0.30;;;28.30;43.30;;;26.90;27.71;100298.03;10336037;28;96673;-78
2022/05/10 14:45:13;;;;;;;0.57;0.20;;;27.90;42.60;;;26.66;27.23;100293.13;10361313;28;96832;-78
2022/05/10 14:50:41;;;;;;;0.55;0.30;;;27.60;41.80;;;26.68;27.02;100288.22;10359567;28;96598;-77
2022/05/10 14:55:51;;;;;;;0.43;0.22;;;27.50;42.60;;;26.53;27.34;100284.69;10369436;28;96841;-78
2022/05/10 15:01:01;;;;;;;0.75;0.40;;;27.40;42.30;;;26.62;27.69;100292.03;10358089;28;97398;-77
2022/05/10 15:06:12;;;;;;;0.20;0.20;;;27.40;43.10;;;26.76;27.50;100288.78;10362254;28;96642;-77
2022/05/10 15:11:15;;;;;;;0.65;0.50;;;27.60;41.80;;;26.81;27.89;100275.97;10321772;28;96989;-76
2022/05/10 15:16:18;;;;;;;0.47;0.30;;;27.70;43.00;;;26.88;28.98;100281.16;10330549;28;98278;-77
2022/05/10 15:21:32;;;;;;;0.73;0.68;;;27.70;44.00;;;26.89;28.83;100277.31;10316375;28;97207;-79
2022/05/10 15:26:48;;;;;;;0.38;0.32;;;27.90;43.60;;;26.82;28.03;100279.53;10373724;28;97612;-78
2022/05/10 15:31:52;;;;;;;1.05;0.45;;;27.80;42.50;;;26.81;29.14;100278.72;10314239;28;96947;-77
2022/05/10 15:36:55;;;;;;;0.73;0.55;;;27.80;43.40;;;27.08;29.47;100283.06;10332364;28;96683;-77
2022/05/10 15:41:58;;;;;;;3.50;0.57;;;28.00;44.30;;;27.43;27.97;100274.78;10323696;28;97117;-77
2022/05/10 15:47:03;;;;;;;0.43;0.20;;;28.40;42.90;;;27.59;27.13;100272.84;10364000;28;96546;-77
2022/05/10 15:52:07;;;;;;;0.65;0.30;;;28.50;41.50;;;27.73;26.69;100273.09;10349972;28;98164;-77
2022/05/10 15:57:10;;;;;;;0.65;0.40;;;28.60;41.60;;;27.95;26.02;100264.53;10332118;28;96476;-75
2022/05/10 16:02:15;;;;;;;0.45;0.30;;;28.80;41.00;;;27.95;25.98;100259.06;10323173;28;99255;-76
2022/05/10 16:07:18;;;;;;;0.30;0.30;;;28.80;40.70;;;27.68;25.40;100273.06;10323410;28;97688;-76
2022/05/10 16:12:22;;;;;;;1.40;0.63;;;28.50;40.50;;;27.58;26.42;100267.63;10300320;28;96646;-76
2022/05/10 16:17:25;;;;;;;0.10;0.10;;;28.30;41.10;;;27.46;25.31;100263.31;10303866;28;98869;-77
2022/05/10 16:22:38;;;;;;;0.60;0.30;;;28.20;39.70;;;27.30;25.65;100256.28;10370227;28;96685;-77
2022/05/10 16:33:06;;;;;;;0.45;0.38;;;27.90;41.20;;;26.95;26.09;100262.59;10307805;28;97266;-77
2022/05/10 16:38:10;;;;;;;0.40;0.22;;;27.80;40.50;;;26.75;25.92;100254.41;10309358;28;96841;-77
2022/05/10 16:43:15;;;;;;;0.30;0.20;;;27.50;40.40;;;26.42;25.27;100260.16;10347666;28;97773;-77
2022/05/10 16:48:22;;;;;;;1.02;0.40;;;27.30;39.60;;;25.95;25.95;100262.22;10318387;28;98465;-76
2022/05/10 16:53:25;;;;;;;0.68;0.28;;;26.90;39.80;;;25.20;27.34;100270.56;10298923;28;96661;-77
2022/05/10 16:58:27;;;;;;;1.75;0.38;;;26.30;41.40;;;24.46;29.04;100270.50;10322505;28;97623;-77
2022/05/10 17:03:30;;;;;;;1.10;0.60;;;25.70;42.90;;;23.84;30.24;100273.63;10323176;28;96748;-77
2022/05/10 17:08:34;;;;;;;0.40;0.40;;;25.10;43.70;;;23.33;31.09;100272.91;10346796;28;98748;-77
2022/05/10 17:13:37;;;;;;;1.13;0.55;;;24.60;44.60;;;22.89;31.09;100270.94;10305315;28;97222;-77
2022/05/10 17:18:40;;;;;;;0.50;0.20;;;24.20;44.20;;;22.50;32.06;100264.59;10317338;28;97125;-77
2022/05/10 17:23:44;;;;;;;0.40;0.20;;;23.90;45.00;;;22.10;32.54;100260.06;10306604;28;97647;-77
2022/05/10 17:28:59;;;;;;;0.43;0.32;;;23.50;45.50;;;21.76;32.95;100269.09;10305662;28;97378;-77
2022/05/10 17:34:09;;;;;;;0.70;0.15;;;23.20;45.70;;;21.41;33.31;100272.72;10319831;28;96597;-77
2022/05/10 17:39:14;;;;;;;0.22;0.15;;;22.80;46.10;;;21.07;34.36;100282.44;10335280;28;98529;-78
2022/05/10 17:44:17;;;;;;;1.02;0.52;;;22.50;47.10;;;20.74;34.89;100283.00;10329695;28;97465;-77
2022/05/10 17:49:20;;;;;;;2.13;0.30;;;22.10;47.60;;;20.39;35.52;100291.81;10342168;28;96930;-77
2022/05/10 17:54:23;;;;;;;0.32;0.30;;;21.80;48.20;;;20.10;36.06;100289.94;10337458;28;97056;-77
2022/05/10 17:59:26;;;;;;;0.17;0.13;;;21.50;48.80;;;19.81;36.61;100299.66;10325862;28;96863;-77
2022/05/10 18:04:35;;;;;;;0.75;0.45;;;21.20;49.40;;;19.56;37.19;100291.63;10311202;28;96741;-78
2022/05/10 18:09:38;;;;;;;0.50;0.50;;;20.90;50.10;;;19.32;37.24;100310.31;10322749;28;98427;-77
2022/05/10 18:14:42;;;;;;;0.82;0.50;;;20.60;50.10;;;19.14;37.77;100302.19;10345743;28;96805;-77
2022/05/10 18:19:45;;;;;;;0.47;0.32;;;20.40;50.10;;;18.94;38.60;100305.84;10307880;28;98193;-77
2022/05/10 18:24:49;;;;;;;1.48;0.10;;;20.30;51.20;;;18.77;38.88;100312.81;10326349;28;98913;-77
2022/05/10 18:29:52;;;;;;;0.30;0.28;;;20.10;51.50;;;18.62;39.23;100313.13;10321835;28;98933;-77
2022/05/10 18:34:55;;;;;;;0.10;0.10;;;19.90;51.60;;;18.49;39.70;100312.41;10347431;28;97564;-77
2022/05/10 18:39:58;;;;;;;0.40;0.15;;;19.70;52.00;;;18.37;40.06;100314.94;10359842;28;97667;-77
2022/05/10 18:45:03;;;;;;;0.40;0.20;;;19.70;52.30;;;18.23;40.70;100319.56;10341853;28;96598;-77
2022/05/10 18:50:09;;;;;;;0.25;0.20;;;19.50;53.10;;;18.05;41.12;100338.25;10364626;28;96546;-77
2022/05/10 18:55:12;;;;;;;1.00;0.40;;;19.40;53.50;;;17.90;41.56;100342.03;10294420;28;96655;-77
2022/05/10 19:00:18;;;;;;;0.30;0.30;;;19.20;54.10;;;17.78;41.36;100338.38;10296609;28;96656;-77
2022/05/10 19:05:23;;;;;;;0.63;0.28;;;19.10;53.60;;;17.67;41.56;100342.50;10314087;28;96500;-77
2022/05/10 19:10:28;;;;;;;0.40;0.20;;;19.00;53.60;;;17.55;42.00;100344.19;10326221;28;96679;-77
2022/05/10 19:15:31;;;;;;;0.32;0.32;;;18.90;53.70;;;17.43;42.71;100347.72;10348914;28;97293;-77
2022/05/10 19:20:34;;;;;;;1.25;0.47;;;18.70;54.40;;;17.31;43.20;100359.09;10332063;28;97502;-77
2022/05/10 19:25:37;;;;;;;0.20;0.20;;;18.60;55.20;;;17.21;44.03;100364.03;10331760;28;96664;-77
2022/05/10 19:30:41;;;;;;;6.85;0.85;;;18.60;55.40;;;17.06;44.80;100369.63;10327734;28;96691;-77
2022/05/10 19:35:44;;;;;;;0.50;0.40;;;18.40;56.90;;;16.95;45.49;100361.38;10326470;28;98112;-77
2022/05/10 19:40:46;;;;;;;0.35;0.32;;;18.30;56.20;;;16.82;45.96;100364.88;10328761;28;98135;-77
2022/05/10 19:45:50;;;;;;;0.85;0.38;;;18.20;56.90;;;16.69;46.23;100371.00;10326549;28;96628;-77
2022/05/10 19:50:53;;;;;;;0.65;0.35;;;18.10;57.60;;;16.53;46.63;100366.84;10296103;28;97527;-77
2022/05/10 19:55:57;;;;;;;0.40;0.40;;;18.00;58.00;;;16.43;46.74;100371.75;10300815;28;97512;-77
2022/05/10 20:00:59;;;;;;;0.40;0.30;;;17.80;58.10;;;16.30;47.42;100377.06;10343900;28;96785;-77
2022/05/10 20:06:07;;;;;;;0.50;0.30;;;17.70;59.40;;;16.20;47.95;100374.78;10344229;28;97875;-79
2022/05/10 20:11:11;;;;;;;0.52;0.40;;;17.50;60.20;;;16.15;48.36;100379.91;10343547;28;96649;-79
2022/05/10 20:16:14;;;;;;;0.95;0.38;;;17.50;60.60;;;16.06;48.64;100375.75;10325918;28;96818;-78
2022/05/10 20:21:18;;;;;;;0.55;0.30;;;17.30;61.30;;;15.99;48.89;100374.88;10304735;28;96895;-78
2022/05/10 20:26:22;;;;;;;0.22;0.20;;;17.30;61.10;;;15.93;49.58;100370.31;10312758;28;96630;-79
2022/05/10 20:31:29;;;;;;;0.65;0.35;;;17.20;61.90;;;15.91;49.97;100372.38;10320920;28;96696;-78
2022/05/10 20:36:32;;;;;;;0.20;0.20;;;17.20;62.80;;;15.85;49.95;100365.13;10326628;28;98611;-78
2022/05/10 20:41:35;;;;;;;0.45;0.20;;;17.10;62.70;;;15.82;50.26;100368.19;10334485;28;96844;-78
2022/05/10 20:46:38;;;;;;;0.05;0.05;;;17.00;62.80;;;15.81;51.12;100364.69;10328505;28;98118;-78
2022/05/10 20:51:41;;;;;;;1.13;0.52;;;17.00;62.20;;;15.78;51.62;100368.59;10331631;28;96552;-78
2022/05/10 20:56:45;;;;;;;0.20;0.20;;;17.10;62.10;;;15.65;52.73;100379.25;10304241;28;96728;-79
2022/05/10 21:01:48;;;;;;;0.85;0.40;;;17.00;62.60;;;15.46;53.62;100379.88;10334338;28;97935;-78
2022/05/10 21:12:14;;;;;;;0.20;0.17;;;16.80;65.00;;;15.11;54.53;100382.50;10326236;28;97732;-78
2022/05/10 21:17:16;;;;;;;0.57;0.38;;;16.60;66.80;;;14.90;55.04;100380.66;10367738;28;97483;-78
2022/05/10 21:22:19;;;;;;;0.20;0.10;;;16.40;66.30;;;14.75;56.03;100381.75;10349839;28;96650;-79
2022/05/10 21:27:24;;;;;;;0.25;0.15;;;16.20;67.40;;;14.57;56.41;100374.97;10341117;28;96853;-79
2022/05/10 21:32:28;;;;;;;0.85;0.50;;;16.10;67.80;;;14.43;57.01;100378.50;10337445;28;96772;-79
2022/05/10 21:37:31;;;;;;;0.00;0.00;;;15.90;68.80;;;14.26;57.77;100377.88;10337464;28;98302;-79
2022/05/10 21:42:34;;;;;;;0.30;0.30;;;15.70;68.40;;;14.17;58.75;100384.38;10350431;28;96858;-79